createdAt,value
2018-01-23T00:00:15.256Z,20.40
2018-01-23T00:02:45.230Z,25.10
2018-01-23T00:05:16.935Z,22.57
2018-01-23T00:07:47.231Z,16.57
2018-01-23T00:10:25.571Z,22.30
2018-01-23T00:12:55.402Z,22.83
2018-01-23T00:15:29.473Z,25.13
2018-01-23T00:17:59.770Z,20.93
2018-01-23T00:20:29.304Z,31.07
2018-01-23T00:22:59.138Z,24.47
2018-01-23T00:25:29.608Z,25.47
2018-01-23T00:27:59.585Z,23.00
2018-01-23T00:30:29.384Z,22.13
2018-01-23T00:32:58.933Z,24.57
2018-01-23T00:35:29.036Z,19.70
2018-01-23T00:37:59.032Z,27.90
2018-01-23T00:40:29.087Z,21.53
2018-01-23T00:42:59.285Z,23.73
2018-01-23T00:45:29.249Z,21.50
2018-01-23T00:47:58.919Z,21.77
2018-01-23T00:50:28.943Z,22.63
2018-01-23T00:52:59.108Z,22.43
2018-01-23T00:55:28.404Z,27.27
2018-01-23T00:57:58.111Z,27.13
2018-01-23T01:00:28.039Z,30.33
2018-01-23T01:02:57.822Z,19.83
2018-01-23T01:05:33.654Z,20.70
2018-01-23T01:08:03.471Z,21.30
2018-01-23T01:10:33.602Z,23.10
2018-01-23T01:13:03.720Z,21.10
2018-01-23T01:15:33.667Z,19.80
2018-01-23T01:18:02.909Z,15.20
2018-01-23T01:20:31.372Z,20.10
2018-01-23T01:22:59.653Z,16.97
2018-01-23T01:25:27.983Z,23.83
2018-01-23T01:27:57.176Z,18.07
2018-01-23T01:30:26.051Z,17.77
2018-01-23T01:32:54.368Z,18.20
2018-01-23T01:35:22.912Z,16.40
2018-01-23T01:37:51.633Z,23.57
2018-01-23T01:40:20.668Z,20.73
2018-01-23T01:42:49.286Z,18.40
2018-01-23T01:45:17.557Z,19.10
2018-01-23T01:47:45.932Z,20.83
2018-01-23T01:50:14.367Z,21.97
2018-01-23T01:52:42.677Z,18.90
2018-01-23T01:55:14.168Z,16.20
2018-01-23T01:57:42.473Z,18.70
2018-01-23T02:00:17.685Z,15.63
2018-01-23T02:02:46.336Z,17.10
2018-01-23T02:05:14.604Z,18.40
2018-01-23T02:07:43.000Z,18.70
2018-01-23T02:10:14.030Z,15.83
2018-01-23T02:12:42.334Z,15.80
2018-01-23T02:15:13.880Z,17.80
2018-01-23T02:17:42.171Z,20.57
2018-01-23T02:20:15.075Z,12.77
2018-01-23T02:22:43.596Z,16.87
2018-01-23T02:25:15.768Z,16.23
2018-01-23T02:27:44.362Z,16.63
2018-01-23T02:30:14.083Z,15.90
2018-01-23T02:32:42.364Z,19.67
2018-01-23T02:35:14.088Z,13.10
2018-01-23T02:37:42.517Z,20.23
2018-01-23T02:40:17.573Z,16.80
2018-01-23T02:42:45.885Z,17.23
2018-01-23T02:45:14.284Z,17.00
2018-01-23T02:47:42.564Z,15.47
2018-01-23T02:50:16.537Z,18.50
2018-01-23T02:52:44.830Z,13.80
2018-01-23T02:55:14.477Z,18.83
2018-01-23T02:57:42.774Z,17.60
2018-01-23T03:00:14.822Z,13.33
2018-01-23T03:02:43.122Z,13.53
2018-01-23T03:05:15.265Z,16.93
2018-01-23T03:07:43.788Z,16.17
2018-01-23T03:10:15.806Z,15.73
2018-01-23T03:12:44.086Z,20.80
2018-01-23T03:15:14.155Z,14.80
2018-01-23T03:17:42.830Z,15.13
2018-01-23T03:20:14.058Z,16.33
2018-01-23T03:22:42.342Z,19.47
2018-01-23T03:25:16.155Z,13.10
2018-01-23T03:27:44.511Z,17.47
2018-01-23T03:30:14.525Z,13.53
2018-01-23T03:32:43.349Z,19.87
2018-01-23T03:35:15.050Z,10.90
2018-01-23T03:37:43.337Z,14.43
2018-01-23T03:40:14.540Z,15.43
2018-01-23T03:42:42.997Z,12.87
2018-01-23T03:45:14.645Z,15.33
2018-01-23T03:47:42.937Z,13.77
2018-01-23T03:50:14.967Z,17.67
2018-01-23T03:52:43.262Z,15.10
2018-01-23T03:55:14.283Z,9.60
2018-01-23T03:57:42.760Z,10.23
2018-01-23T04:00:15.371Z,11.77
2018-01-23T04:02:43.753Z,11.30
2018-01-23T04:05:15.572Z,15.60
2018-01-23T04:07:43.866Z,15.57
2018-01-23T04:10:15.276Z,15.83
2018-01-23T04:12:43.720Z,15.13
2018-01-23T04:15:15.467Z,11.97
2018-01-23T04:17:43.880Z,17.57
2018-01-23T04:20:15.351Z,16.83
2018-01-23T04:22:44.091Z,11.50
2018-01-23T04:25:14.008Z,13.87
2018-01-23T04:27:43.245Z,12.37
2018-01-23T04:30:14.588Z,12.10
2018-01-23T04:32:42.864Z,14.30
2018-01-23T04:35:14.086Z,20.70
2018-01-23T04:37:42.363Z,12.70
2018-01-23T04:40:13.890Z,12.97
2018-01-23T04:42:42.172Z,12.40
2018-01-23T04:45:13.508Z,15.07
2018-01-23T04:47:41.915Z,15.20
2018-01-23T04:50:15.531Z,13.33
2018-01-23T04:52:43.829Z,11.93
2018-01-23T04:55:15.468Z,13.53
2018-01-23T04:57:43.739Z,11.00
2018-01-23T05:00:16.590Z,14.47
2018-01-23T05:02:44.980Z,13.57
2018-01-23T05:05:14.364Z,12.90
2018-01-23T05:07:42.656Z,10.63
2018-01-23T05:10:14.772Z,14.40
2018-01-23T05:12:43.078Z,14.20
2018-01-23T05:15:15.221Z,14.00
2018-01-23T05:17:43.518Z,13.17
2018-01-23T05:20:15.553Z,13.57
2018-01-23T05:22:43.862Z,11.20
2018-01-23T05:25:15.896Z,13.77
2018-01-23T05:27:44.185Z,12.30
2018-01-23T05:30:15.527Z,10.30
2018-01-23T05:32:43.808Z,11.83
2018-01-23T05:35:15.967Z,16.43
2018-01-23T05:37:44.269Z,19.10
2018-01-23T05:40:14.150Z,13.30
2018-01-23T05:42:42.648Z,14.00
2018-01-23T05:45:14.470Z,11.07
2018-01-23T05:47:42.886Z,11.10
2018-01-23T05:50:14.468Z,13.43
2018-01-23T05:52:42.783Z,11.63
2018-01-23T05:55:14.973Z,11.87
2018-01-23T05:57:43.248Z,11.20
2018-01-23T06:00:14.988Z,10.17
2018-01-23T06:02:43.248Z,14.63
2018-01-23T06:05:15.372Z,13.93
2018-01-23T06:07:43.653Z,14.40
2018-01-23T06:10:15.031Z,14.13
2018-01-23T06:12:43.299Z,11.03
2018-01-23T06:15:14.096Z,14.10
2018-01-23T06:17:42.360Z,12.50
2018-01-23T06:20:13.896Z,12.67
2018-01-23T06:22:42.164Z,11.87
2018-01-23T06:25:17.352Z,13.50
2018-01-23T06:27:46.143Z,14.17
2018-01-23T06:30:14.412Z,13.07
2018-01-23T06:32:43.456Z,12.27
2018-01-23T06:35:15.752Z,10.17
2018-01-23T06:37:44.029Z,11.30
2018-01-23T06:40:14.084Z,13.07
2018-01-23T06:42:42.394Z,10.03
2018-01-23T06:45:13.812Z,12.70
2018-01-23T06:47:42.131Z,14.53
2018-01-23T06:50:13.879Z,11.03
2018-01-23T06:52:42.232Z,10.33
2018-01-23T06:55:13.883Z,15.87
2018-01-23T06:57:42.184Z,13.67
2018-01-23T07:00:17.327Z,12.07
2018-01-23T07:02:45.765Z,16.93
2018-01-23T07:05:14.112Z,10.30
2018-01-23T07:07:42.417Z,12.83
2018-01-23T07:10:16.102Z,11.23
2018-01-23T07:12:44.417Z,15.57
2018-01-23T07:15:16.098Z,14.10
2018-01-23T07:17:44.705Z,15.67
2018-01-23T07:20:14.138Z,11.57
2018-01-23T07:22:42.413Z,19.50
2018-01-23T07:25:17.725Z,11.57
2018-01-23T07:27:46.006Z,13.00
2018-01-23T07:30:14.308Z,13.60
2018-01-23T07:32:42.576Z,10.97
2018-01-23T07:35:17.800Z,12.40
2018-01-23T07:37:46.154Z,12.87
2018-01-23T07:40:14.492Z,11.60
2018-01-23T07:42:42.733Z,13.67
2018-01-23T07:45:14.920Z,12.63
2018-01-23T07:47:43.228Z,13.50
2018-01-23T07:50:15.586Z,11.60
2018-01-23T07:52:43.883Z,13.50
2018-01-23T07:55:16.109Z,13.53
2018-01-23T07:57:44.556Z,10.27
2018-01-23T08:00:16.021Z,12.50
2018-01-23T08:02:44.278Z,12.37
2018-01-23T08:05:14.143Z,11.10
2018-01-23T08:07:42.408Z,10.17
2018-01-23T08:10:15.350Z,11.43
2018-01-23T08:12:43.640Z,11.70
2018-01-23T08:15:15.205Z,10.83
2018-01-23T08:17:43.485Z,10.97
2018-01-23T08:20:19.452Z,8.90
2018-01-23T08:22:47.745Z,14.80
2018-01-23T08:25:16.018Z,12.33
2018-01-23T08:27:44.341Z,11.90
2018-01-23T08:30:16.348Z,9.97
2018-01-23T08:32:44.636Z,13.03
2018-01-23T08:35:14.453Z,10.10
2018-01-23T08:37:43.693Z,15.33
2018-01-23T08:40:14.916Z,13.50
2018-01-23T08:42:43.204Z,10.43
2018-01-23T08:45:14.301Z,14.30
2018-01-23T08:47:42.741Z,10.47
2018-01-23T08:50:14.244Z,14.47
2018-01-23T08:52:42.517Z,11.53
2018-01-23T08:55:18.032Z,10.73
2018-01-23T08:57:47.043Z,15.27
2018-01-23T09:00:15.296Z,8.70
2018-01-23T09:02:43.861Z,16.00
2018-01-23T09:05:15.432Z,14.20
2018-01-23T09:07:43.708Z,11.90
2018-01-23T09:10:15.189Z,11.07
2018-01-23T09:12:43.474Z,12.27
2018-01-23T09:15:15.609Z,12.03
2018-01-23T09:17:44.027Z,11.03
2018-01-23T09:20:15.804Z,12.63
2018-01-23T09:22:44.268Z,8.83
2018-01-23T09:25:14.135Z,7.83
2018-01-23T09:27:42.472Z,10.80
2018-01-23T09:30:13.990Z,10.97
2018-01-23T09:32:42.265Z,12.63
2018-01-23T09:35:13.614Z,12.30
2018-01-23T09:37:41.896Z,11.93
2018-01-23T09:40:16.807Z,10.23
2018-01-23T09:42:45.076Z,12.87
2018-01-23T09:45:14.213Z,9.67
2018-01-23T09:47:43.206Z,13.60
2018-01-23T09:50:14.148Z,13.50
2018-01-23T09:52:42.712Z,13.23
2018-01-23T09:55:16.656Z,13.50
2018-01-23T09:57:44.948Z,11.53
2018-01-23T10:00:14.441Z,13.90
2018-01-23T10:02:42.710Z,9.73
2018-01-23T10:05:14.968Z,11.50
2018-01-23T10:07:43.415Z,15.27
2018-01-23T10:10:15.147Z,10.87
2018-01-23T10:12:43.411Z,10.60
2018-01-23T10:15:15.208Z,10.73
2018-01-23T10:17:43.484Z,11.07
2018-01-23T10:20:14.887Z,11.13
2018-01-23T10:22:43.167Z,10.20
2018-01-23T10:25:14.511Z,8.63
2018-01-23T10:27:42.784Z,7.53
2018-01-23T10:30:16.722Z,8.03
2018-01-23T10:32:45.729Z,11.57
2018-01-23T10:35:14.275Z,13.60
2018-01-23T10:37:42.566Z,10.33
2018-01-23T10:40:17.717Z,10.97
2018-01-23T10:42:45.999Z,8.63
2018-01-23T10:45:14.418Z,8.87
2018-01-23T10:47:42.916Z,8.87
2018-01-23T10:50:15.087Z,13.23
2018-01-23T10:52:43.664Z,10.17
2018-01-23T10:55:15.900Z,13.30
2018-01-23T10:57:44.222Z,8.90
2018-01-23T11:00:14.466Z,13.13
2018-01-23T11:02:42.753Z,10.60
2018-01-23T11:05:17.792Z,11.17
2018-01-23T11:07:46.072Z,10.07
2018-01-23T11:10:15.080Z,9.57
2018-01-23T11:12:43.361Z,11.30
2018-01-23T11:15:15.259Z,14.37
2018-01-23T11:17:44.681Z,9.97
2018-01-23T11:20:15.573Z,10.20
2018-01-23T11:22:43.849Z,12.33
2018-01-23T11:25:15.280Z,10.43
2018-01-23T11:27:44.056Z,9.37
2018-01-23T11:30:15.653Z,8.63
2018-01-23T11:32:44.440Z,7.20
2018-01-23T11:35:16.161Z,6.83
2018-01-23T11:37:44.456Z,8.97
2018-01-23T11:40:15.680Z,7.27
2018-01-23T11:42:43.961Z,10.40
2018-01-23T11:45:15.428Z,11.57
2018-01-23T11:47:43.981Z,9.20
2018-01-23T11:50:15.797Z,8.93
2018-01-23T11:52:44.087Z,8.37
2018-01-23T11:55:15.592Z,8.93
2018-01-23T11:57:43.950Z,9.33
2018-01-23T12:00:15.515Z,8.13
2018-01-23T12:02:43.828Z,5.30
2018-01-23T12:05:15.742Z,6.30
2018-01-23T12:07:44.758Z,6.17
2018-01-23T12:10:14.188Z,7.07
2018-01-23T12:12:42.498Z,10.03
2018-01-23T12:15:17.716Z,7.07
2018-01-23T12:17:46.009Z,7.03
2018-01-23T12:20:14.289Z,8.07
2018-01-23T12:22:42.573Z,7.23
2018-01-23T12:25:14.501Z,6.53
2018-01-23T12:27:43.046Z,8.77
2018-01-23T12:30:15.105Z,8.67
2018-01-23T12:32:43.632Z,6.37
2018-01-23T12:35:15.851Z,7.00
2018-01-23T12:37:44.127Z,7.47
2018-01-23T12:40:15.583Z,5.90
2018-01-23T12:42:43.866Z,5.20
2018-01-23T12:45:15.405Z,6.80
2018-01-23T12:47:43.700Z,7.30
2018-01-23T12:50:15.737Z,7.73
2018-01-23T12:52:44.136Z,7.47
2018-01-23T12:55:14.348Z,9.20
2018-01-23T12:57:42.632Z,6.37
2018-01-23T13:00:15.024Z,9.43
2018-01-23T13:02:43.721Z,10.97
2018-01-23T13:05:14.893Z,7.63
2018-01-23T13:07:43.187Z,6.37
2018-01-23T13:10:15.342Z,7.90
2018-01-23T13:12:43.681Z,9.67
2018-01-23T13:15:15.688Z,8.20
2018-01-23T13:17:43.980Z,9.83
2018-01-23T13:20:15.937Z,5.57
2018-01-23T13:22:44.731Z,6.83
2018-01-23T13:25:14.524Z,6.80
2018-01-23T13:27:42.809Z,6.10
2018-01-23T13:30:14.923Z,5.63
2018-01-23T13:32:43.238Z,5.20
2018-01-23T13:35:14.444Z,8.03
2018-01-23T13:37:42.730Z,5.47
2018-01-23T13:40:14.945Z,8.33
2018-01-23T13:42:43.368Z,8.57
2018-01-23T13:45:14.680Z,8.30
2018-01-23T13:47:43.132Z,6.70
2018-01-23T13:50:15.160Z,7.30
2018-01-23T13:52:43.477Z,7.20
2018-01-23T13:55:15.603Z,8.17
2018-01-23T13:57:43.877Z,6.63
2018-01-23T14:00:15.465Z,7.00
2018-01-23T14:02:43.889Z,7.23
2018-01-23T14:05:16.441Z,6.27
2018-01-23T14:07:44.990Z,8.07
2018-01-23T14:10:14.814Z,7.63
2018-01-23T14:12:43.108Z,8.23
2018-01-23T14:15:15.053Z,6.70
2018-01-23T14:17:43.357Z,7.13
2018-01-23T14:20:15.163Z,6.23
2018-01-23T14:22:43.472Z,13.00
2018-01-23T14:25:14.448Z,7.47
2018-01-23T14:27:42.740Z,6.90
2018-01-23T14:30:14.022Z,5.90
2018-01-23T14:32:42.333Z,7.17
2018-01-23T14:35:14.800Z,7.27
2018-01-23T14:37:43.372Z,7.93
2018-01-23T14:40:13.343Z,4.73
2018-01-23T14:42:41.901Z,7.90
2018-01-23T14:45:14.053Z,6.27
2018-01-23T14:47:42.311Z,4.17
2018-01-23T14:50:14.196Z,6.90
2018-01-23T14:52:43.293Z,4.57
2018-01-23T14:55:14.483Z,6.57
2018-01-23T14:57:42.811Z,7.90
2018-01-23T15:00:13.976Z,4.47
2018-01-23T15:02:42.303Z,7.83
2018-01-23T15:05:14.456Z,7.87
2018-01-23T15:07:42.733Z,5.97
2018-01-23T15:10:14.098Z,4.73
2018-01-23T15:12:42.374Z,8.70
2018-01-23T15:15:14.548Z,7.13
2018-01-23T15:17:42.821Z,6.67
2018-01-23T15:20:15.065Z,7.40
2018-01-23T15:22:43.370Z,5.03
2018-01-23T15:25:15.802Z,5.57
2018-01-23T15:27:44.298Z,5.40
2018-01-23T15:30:13.794Z,7.77
2018-01-23T15:32:42.913Z,6.03
2018-01-23T15:35:14.449Z,6.13
2018-01-23T15:37:42.740Z,5.60
2018-01-23T15:40:14.016Z,6.87
2018-01-23T15:42:42.299Z,5.57
2018-01-23T15:45:13.528Z,3.53
2018-01-23T15:47:42.118Z,8.40
2018-01-23T15:50:14.228Z,4.43
2018-01-23T15:52:42.690Z,6.07
2018-01-23T15:55:14.497Z,5.20
2018-01-23T15:57:42.840Z,6.13
2018-01-23T16:00:14.166Z,6.43
2018-01-23T16:02:42.463Z,5.67
2018-01-23T16:05:14.596Z,5.33
2018-01-23T16:07:42.859Z,5.57
2018-01-23T16:10:14.373Z,7.23
2018-01-23T16:12:42.653Z,5.40
2018-01-23T16:15:14.057Z,4.50
2018-01-23T16:17:42.402Z,4.87
2018-01-23T16:20:14.383Z,6.07
2018-01-23T16:22:42.664Z,7.53
2018-01-23T16:25:14.630Z,5.23
2018-01-23T16:27:42.943Z,4.30
2018-01-23T16:30:14.921Z,6.60
2018-01-23T16:32:43.220Z,5.50
2018-01-23T16:35:15.078Z,3.90
2018-01-23T16:37:43.445Z,5.60
2018-01-23T16:40:14.764Z,4.43
2018-01-23T16:42:43.480Z,6.20
2018-01-23T16:45:13.327Z,9.27
2018-01-23T16:47:41.640Z,6.93
2018-01-23T16:50:13.078Z,6.83
2018-01-23T16:52:41.500Z,8.53
2018-01-23T16:55:13.364Z,6.33
2018-01-23T16:57:42.241Z,6.87
2018-01-23T17:00:13.430Z,6.17
2018-01-23T17:02:41.741Z,8.37
2018-01-23T17:05:13.592Z,4.90
2018-01-23T17:07:42.141Z,5.53
2018-01-23T17:10:14.389Z,6.27
2018-01-23T17:12:43.580Z,5.57
2018-01-23T17:15:14.808Z,11.93
2018-01-23T17:17:43.526Z,8.47
2018-01-23T17:20:14.227Z,8.10
2018-01-23T17:22:42.692Z,6.40
2018-01-23T17:25:14.833Z,6.20
2018-01-23T17:27:43.099Z,9.30
2018-01-23T17:30:14.452Z,6.97
2018-01-23T17:32:42.752Z,5.83
2018-01-23T17:35:14.879Z,6.53
2018-01-23T17:37:43.328Z,4.43
2018-01-23T17:40:15.289Z,8.43
2018-01-23T17:42:43.604Z,4.93
2018-01-23T17:45:13.808Z,4.77
2018-01-23T17:47:42.132Z,5.87
2018-01-23T17:50:13.536Z,4.80
2018-01-23T17:52:41.832Z,5.53
2018-01-23T17:55:17.396Z,4.87
2018-01-23T17:57:45.748Z,7.20
2018-01-23T18:00:14.028Z,5.40
2018-01-23T18:02:42.824Z,8.57
2018-01-23T18:05:14.224Z,6.43
2018-01-23T18:07:42.617Z,6.83
2018-01-23T18:10:14.794Z,5.67
2018-01-23T18:12:43.111Z,6.30
2018-01-23T18:15:15.183Z,7.40
2018-01-23T18:17:43.499Z,4.77
2018-01-23T18:20:13.401Z,5.63
2018-01-23T18:22:41.702Z,4.77
2018-01-23T18:25:13.252Z,6.40
2018-01-23T18:27:41.566Z,7.77
2018-01-23T18:30:13.219Z,4.70
2018-01-23T18:32:41.740Z,5.40
2018-01-23T18:35:13.494Z,6.53
2018-01-23T18:37:41.801Z,9.87
2018-01-23T18:40:13.424Z,4.63
2018-01-23T18:42:41.783Z,5.37
2018-01-23T18:45:20.819Z,6.13
2018-01-23T18:47:49.293Z,5.70
2018-01-23T18:50:17.593Z,6.20
2018-01-23T18:52:45.917Z,5.67
2018-01-23T18:55:14.232Z,4.83
2018-01-23T18:57:42.705Z,4.33
2018-01-23T19:00:14.841Z,5.53
2018-01-23T19:02:43.166Z,7.00
2018-01-23T19:05:15.069Z,8.87
2018-01-23T19:07:43.384Z,7.70
2018-01-23T19:10:15.419Z,5.67
2018-01-23T19:12:44.230Z,4.90
2018-01-23T19:15:13.865Z,7.90
2018-01-23T19:17:42.132Z,7.00
2018-01-23T19:20:16.086Z,7.30
2018-01-23T19:22:44.368Z,6.70
2018-01-23T19:25:13.769Z,7.67
2018-01-23T19:27:42.049Z,5.60
2018-01-23T19:30:14.081Z,6.93
2018-01-23T19:32:42.493Z,6.00
2018-01-23T19:35:14.413Z,5.87
2018-01-23T19:37:42.730Z,9.07
2018-01-23T19:40:14.421Z,8.07
2018-01-23T19:42:42.746Z,7.40
2018-01-23T19:45:14.373Z,8.10
2018-01-23T19:47:42.672Z,6.10
2018-01-23T19:50:14.227Z,7.10
2018-01-23T19:52:42.734Z,7.10
2018-01-23T19:55:15.286Z,5.30
2018-01-23T19:57:43.584Z,4.93
2018-01-23T20:00:13.445Z,4.13
2018-01-23T20:02:41.751Z,5.57
2018-01-23T20:05:17.007Z,5.37
2018-01-23T20:07:45.303Z,5.20
2018-01-23T20:10:14.383Z,6.17
2018-01-23T20:12:42.704Z,4.80
2018-01-23T20:15:14.323Z,4.17
2018-01-23T20:17:42.767Z,5.03
2018-01-23T20:20:14.884Z,8.93
2018-01-23T20:22:43.173Z,5.60
2018-01-23T20:25:14.989Z,5.57
2018-01-23T20:27:43.325Z,5.47
2018-01-23T20:30:15.737Z,5.67
2018-01-23T20:32:44.013Z,5.63
2018-01-23T20:35:13.803Z,9.77
2018-01-23T20:37:42.364Z,7.60
2018-01-23T20:40:14.272Z,5.47
2018-01-23T20:42:42.542Z,7.93
2018-01-23T20:45:14.722Z,4.93
2018-01-23T20:47:43.014Z,5.27
2018-01-23T20:50:15.064Z,5.13
2018-01-23T20:52:43.346Z,5.03
2018-01-23T20:55:15.894Z,5.00
2018-01-23T20:57:44.142Z,6.60
2018-01-23T21:00:13.987Z,5.70
2018-01-23T21:02:42.288Z,4.80
2018-01-23T21:05:14.329Z,6.23
2018-01-23T21:07:42.651Z,4.40
2018-01-23T21:10:13.434Z,4.03
2018-01-23T21:12:41.716Z,6.07
2018-01-23T21:15:13.239Z,4.63
2018-01-23T21:17:41.748Z,4.23
2018-01-23T21:20:17.122Z,6.47
2018-01-23T21:22:45.449Z,11.37
2018-01-23T21:25:13.724Z,4.63
2018-01-23T21:27:42.497Z,3.83
2018-01-23T21:30:14.381Z,2.70
2018-01-23T21:32:42.676Z,5.13
2018-01-23T21:35:14.182Z,4.13
2018-01-23T21:37:43.412Z,3.67
2018-01-23T21:40:13.630Z,4.97
2018-01-23T21:42:41.876Z,4.53
2018-01-23T21:45:13.341Z,5.67
2018-01-23T21:47:41.613Z,5.97
2018-01-23T21:50:16.847Z,4.17
2018-01-23T21:52:45.199Z,5.83
2018-01-23T21:55:13.564Z,4.33
2018-01-23T21:57:42.030Z,4.73
2018-01-23T22:00:16.096Z,3.70
2018-01-23T22:02:44.388Z,4.57
2018-01-23T22:05:13.824Z,4.00
2018-01-23T22:07:42.093Z,3.23
2018-01-23T22:10:16.149Z,4.07
2018-01-23T22:12:44.692Z,14.73
2018-01-23T22:15:13.909Z,5.23
2018-01-23T22:17:42.264Z,3.97
2018-01-23T22:20:14.721Z,6.57
2018-01-23T22:22:43.029Z,4.23
2018-01-23T22:25:14.959Z,3.23
2018-01-23T22:27:43.247Z,2.87
2018-01-23T22:30:15.377Z,2.97
2018-01-23T22:32:43.672Z,2.90
2018-01-23T22:35:15.335Z,5.10
2018-01-23T22:37:43.644Z,3.50
2018-01-23T22:40:15.364Z,4.23
2018-01-23T22:42:43.676Z,3.23
2018-01-23T22:45:13.582Z,3.17
2018-01-23T22:47:41.883Z,2.30
2018-01-23T22:50:13.287Z,2.60
2018-01-23T22:52:41.584Z,2.50
2018-01-23T22:55:12.979Z,3.30
2018-01-23T22:57:41.276Z,2.43
2018-01-23T23:00:16.110Z,2.90
2018-01-23T23:02:44.390Z,3.37
2018-01-23T23:05:14.011Z,2.60
2018-01-23T23:07:43.278Z,2.40
2018-01-23T23:10:14.565Z,2.77
2018-01-23T23:12:42.832Z,2.57
2018-01-23T23:15:14.367Z,1.80
2018-01-23T23:17:42.659Z,2.30
2018-01-23T23:20:14.955Z,2.20
2018-01-23T23:22:43.430Z,1.93
2018-01-23T23:25:14.720Z,1.63
2018-01-23T23:27:42.998Z,1.20
2018-01-23T23:30:14.430Z,1.23
2018-01-23T23:32:42.725Z,1.23
2018-01-23T23:35:13.462Z,2.20
2018-01-23T23:37:41.801Z,0.97
2018-01-23T23:40:13.396Z,1.07
2018-01-23T23:42:41.700Z,0.93
2018-01-23T23:45:15.498Z,1.00
2018-01-23T23:47:43.928Z,1.57
2018-01-23T23:50:15.140Z,2.53
2018-01-23T23:52:43.454Z,1.10
2018-01-23T23:55:13.542Z,0.97
2018-01-23T23:57:41.845Z,0.87
